Time;durP1;ratioP1;P1;durP2;ratioP2;P2;SDS_P1;SDS_P2;PMS_P1;PMS_P2;Temp;Humidity;BMP_temperature;BMP_pressure;BME280_temperature;BME280_humidity;BME280_pressure;Samples;Min_cycle;Max_cycle;Signal;HPM_P1;HPM_P2
2023/05/21 00:01:42;;;;;;;11.00;8.27;;;20.90;56.10;;;;;;4978522;28;20625;-76
2023/05/21 00:04:11;;;;;;;11.82;7.93;;;20.90;56.20;;;;;;4979091;28;20220;-76
2023/05/21 00:06:40;;;;;;;11.27;8.38;;;20.90;56.10;;;;;;4994938;28;20197;-76
2023/05/21 00:09:07;;;;;;;10.70;8.57;;;20.90;56.00;;;;;;4994939;28;20200;-76
2023/05/21 00:11:34;;;;;;;11.43;8.57;;;20.80;56.00;;;;;;4996042;28;20221;-76
2023/05/21 00:14:03;;;;;;;10.27;8.40;;;20.90;56.20;;;;;;4978747;28;20229;-76
2023/05/21 00:16:30;;;;;;;12.48;8.05;;;20.80;56.10;;;;;;4979571;28;20260;-76
2023/05/21 00:18:57;;;;;;;14.50;8.70;;;20.80;56.10;;;;;;4995009;28;20194;-76
2023/05/21 00:21:24;;;;;;;11.10;7.93;;;20.80;56.10;;;;;;4978628;28;20213;-77
2023/05/21 00:23:52;;;;;;;10.05;8.18;;;20.70;56.10;;;;;;4994675;28;20434;-77
2023/05/21 00:26:20;;;;;;;10.27;7.93;;;20.80;56.20;;;;;;4996159;28;20189;-77
2023/05/21 00:28:49;;;;;;;10.27;7.82;;;20.80;56.20;;;;;;4978509;28;20207;-76
2023/05/21 00:31:17;;;;;;;11.43;8.13;;;20.70;56.10;;;;;;4978531;28;20220;-77
2023/05/21 00:33:45;;;;;;;10.50;8.35;;;20.70;56.10;;;;;;4994355;28;20575;-76
2023/05/21 00:36:13;;;;;;;10.15;7.75;;;20.70;56.10;;;;;;4978305;28;20208;-77
2023/05/21 00:38:42;;;;;;;8.80;7.90;;;20.70;56.10;;;;;;4994515;28;20200;-76
2023/05/21 00:41:09;;;;;;;10.05;8.05;;;20.70;56.20;;;;;;4978000;28;20676;-77
2023/05/21 00:43:39;;;;;;;8.68;7.78;;;20.70;56.20;;;;;;4994113;28;20202;-76
2023/05/21 00:46:06;;;;;;;11.18;8.57;;;20.70;56.20;;;;;;4994128;28;20209;-76
2023/05/21 00:48:35;;;;;;;10.18;8.15;;;20.70;56.20;;;;;;4978057;28;20190;-76
2023/05/21 00:51:02;;;;;;;10.48;7.70;;;20.60;56.10;;;;;;4978020;28;20583;-77
2023/05/21 00:53:30;;;;;;;11.25;7.82;;;20.70;56.20;;;;;;4978030;28;20296;-77
2023/05/21 00:55:57;;;;;;;11.25;8.20;;;20.60;56.20;;;;;;4977722;28;20217;-77
2023/05/21 00:58:24;;;;;;;8.60;7.57;;;20.60;56.20;;;;;;4978309;28;20193;-77
2023/05/21 01:00:54;;;;;;;8.50;7.70;;;20.60;56.10;;;;;;4994330;28;20201;-77
2023/05/21 01:03:22;;;;;;;10.18;8.23;;;20.60;56.10;;;;;;5007044;28;20205;-77
2023/05/21 01:05:52;;;;;;;10.43;7.97;;;20.60;56.20;;;;;;5014819;28;20210;-77
2023/05/21 01:08:20;;;;;;;9.38;7.93;;;20.60;56.20;;;;;;4995350;28;20197;-76
2023/05/21 01:10:47;;;;;;;10.23;7.80;;;20.60;56.20;;;;;;4977808;28;20292;-76
2023/05/21 01:13:15;;;;;;;11.18;7.82;;;20.60;56.30;;;;;;4977745;28;20611;-77
2023/05/21 01:15:42;;;;;;;10.15;7.72;;;20.50;56.20;;;;;;4977740;28;20199;-77
2023/05/21 01:18:09;;;;;;;9.85;8.00;;;20.50;56.20;;;;;;4977488;28;20263;-77
2023/05/21 01:20:38;;;;;;;9.45;7.25;;;20.50;56.20;;;;;;4977654;28;20198;-76
2023/05/21 01:23:06;;;;;;;9.30;7.80;;;20.60;56.30;;;;;;4993688;28;20229;-77
2023/05/21 01:25:33;;;;;;;9.98;7.93;;;20.60;56.30;;;;;;4977241;28;20217;-77
2023/05/21 01:28:00;;;;;;;8.75;7.63;;;20.50;56.20;;;;;;4977796;28;20205;-77
2023/05/21 01:30:27;;;;;;;8.50;7.55;;;20.50;56.20;;;;;;4977725;28;20644;-77
2023/05/21 01:32:58;;;;;;;8.35;7.45;;;20.50;56.30;;;;;;4981162;28;20217;-77
2023/05/21 01:35:27;;;;;;;9.38;7.50;;;20.50;56.30;;;;;;4981784;28;20194;-77
2023/05/21 01:37:57;;;;;;;9.65;7.90;;;20.50;56.30;;;;;;4981436;28;20344;-77
2023/05/21 01:40:31;;;;;;;9.55;7.32;;;20.50;56.30;;;;;;4981696;28;20193;-77
2023/05/21 01:42:59;;;;;;;8.30;7.50;;;20.40;56.30;;;;;;4981341;28;20220;-77
2023/05/21 01:45:26;;;;;;;8.60;7.45;;;20.40;56.30;;;;;;4965107;28;20263;-77
2023/05/21 01:47:54;;;;;;;8.40;7.50;;;20.40;56.20;;;;;;4981194;28;20201;-77
2023/05/21 01:50:22;;;;;;;9.55;7.70;;;20.50;56.30;;;;;;4980983;28;20221;-77
2023/05/21 01:52:50;;;;;;;8.98;7.90;;;20.40;56.90;;;;;;4964736;28;20237;-77
2023/05/21 01:55:18;;;;;;;8.40;7.57;;;20.40;56.30;;;;;;4981370;28;20225;-77
2023/05/21 01:57:46;;;;;;;8.43;7.32;;;20.40;56.30;;;;;;4980811;28;20296;-77
2023/05/21 02:00:14;;;;;;;9.63;8.13;;;20.40;56.30;;;;;;4997353;28;20201;-78
2023/05/21 02:02:44;;;;;;;8.13;7.18;;;20.40;56.30;;;;;;4999576;28;20225;-77
2023/05/21 02:05:11;;;;;;;10.05;7.90;;;20.40;56.30;;;;;;4981548;28;20330;-76
2023/05/21 02:07:44;;;;;;;7.95;7.15;;;20.40;56.30;;;;;;4997421;28;20670;-76
2023/05/21 02:10:33;;;;;;;8.13;7.30;;;20.40;56.30;;;;;;4999318;28;20643;-76
2023/05/21 02:13:02;;;;;;;10.13;8.05;;;20.40;56.30;;;;;;4981045;28;20304;-76
2023/05/21 02:15:29;;;;;;;8.23;7.15;;;20.30;56.80;;;;;;4981495;28;20212;-77
2023/05/21 02:17:57;;;;;;;9.50;7.75;;;20.30;56.20;;;;;;4980717;28;20660;-77
2023/05/21 02:20:24;;;;;;;8.52;7.63;;;20.30;56.30;;;;;;4996495;28;20551;-77
2023/05/21 02:22:51;;;;;;;9.63;7.72;;;20.30;56.30;;;;;;4980435;28;20265;-77
2023/05/21 02:25:19;;;;;;;9.00;7.78;;;20.30;56.30;;;;;;4980232;28;20591;-77
2023/05/21 02:27:51;;;;;;;8.30;7.50;;;20.30;56.40;;;;;;4980659;28;20225;-77
2023/05/21 02:30:20;;;;;;;9.02;7.78;;;20.30;56.40;;;;;;4980644;28;20212;-77
2023/05/21 02:32:48;;;;;;;10.07;7.97;;;20.30;56.40;;;;;;4980380;28;20244;-77
2023/05/21 02:35:15;;;;;;;8.40;7.43;;;20.30;56.40;;;;;;4980126;28;20198;-77
2023/05/21 02:37:42;;;;;;;7.47;6.78;;;20.30;56.40;;;;;;4996821;28;20285;-77
2023/05/21 02:40:10;;;;;;;8.60;7.75;;;20.30;56.40;;;;;;4981242;28;20232;-77
2023/05/21 02:42:38;;;;;;;9.07;8.13;;;20.20;56.30;;;;;;4979794;28;20228;-77
2023/05/21 02:45:07;;;;;;;8.65;7.47;;;20.30;56.50;;;;;;4980110;28;20283;-77
2023/05/21 02:47:35;;;;;;;8.38;7.55;;;20.20;56.40;;;;;;4980629;28;20292;-77
2023/05/21 02:50:04;;;;;;;8.35;7.63;;;20.30;56.40;;;;;;4996262;28;20227;-77
2023/05/21 02:52:31;;;;;;;9.05;7.78;;;20.30;56.50;;;;;;4996550;28;20244;-76
2023/05/21 02:54:59;;;;;;;8.05;7.35;;;20.30;56.50;;;;;;4979979;28;20610;-77
2023/05/21 02:57:26;;;;;;;9.05;7.70;;;20.20;56.40;;;;;;4996058;28;20701;-77
2023/05/21 02:59:52;;;;;;;8.95;7.75;;;20.20;56.40;;;;;;4980512;28;20220;-77
2023/05/21 03:02:19;;;;;;;8.57;7.68;;;20.20;56.40;;;;;;4980013;28;20221;-77
2023/05/21 03:04:50;;;;;;;9.27;7.72;;;20.20;56.40;;;;;;4980333;28;20640;-76
2023/05/21 03:07:18;;;;;;;9.45;8.45;;;20.20;56.20;;;;;;4979991;28;20248;-77
2023/05/21 03:09:45;;;;;;;8.48;7.63;;;20.20;56.10;;;;;;4996004;28;20189;-76
2023/05/21 03:12:12;;;;;;;9.40;7.90;;;20.20;56.00;;;;;;4979869;28;20213;-76
2023/05/21 03:14:41;;;;;;;8.20;7.40;;;20.20;55.90;;;;;;4979967;28;20256;-76
2023/05/21 03:17:12;;;;;;;8.25;7.45;;;20.10;55.90;;;;;;4996074;28;20292;-76
2023/05/21 03:19:40;;;;;;;8.57;7.70;;;20.20;55.90;;;;;;4996342;28;20194;-76
2023/05/21 03:22:10;;;;;;;8.63;7.72;;;20.20;55.90;;;;;;4979801;28;20576;-76
2023/05/21 03:24:37;;;;;;;8.45;7.65;;;20.20;55.80;;;;;;4997078;28;20197;-77
2023/05/21 03:27:06;;;;;;;9.05;7.40;;;20.30;55.90;;;;;;4996324;28;20300;-76
2023/05/21 03:29:34;;;;;;;7.80;7.00;;;20.30;55.70;;;;;;4979622;28;20208;-77
2023/05/21 03:32:02;;;;;;;8.20;7.40;;;20.30;55.50;;;;;;4979507;28;20213;-77
2023/05/21 03:34:33;;;;;;;8.00;7.30;;;20.30;55.50;;;;;;4995768;28;20596;-77
2023/05/21 03:37:01;;;;;;;8.32;7.50;;;20.40;55.40;;;;;;4995685;28;20667;-76
2023/05/21 03:39:30;;;;;;;8.75;7.85;;;20.40;55.30;;;;;;4979095;28;20193;-77
2023/05/21 03:41:57;;;;;;;7.85;7.05;;;20.50;55.30;;;;;;4995441;28;20312;-77
2023/05/21 03:44:38;;;;;;;8.68;7.78;;;20.50;55.00;;;;;;4979726;28;20207;-77
2023/05/21 03:47:19;;;;;;;8.35;7.13;;;20.50;55.00;;;;;;4979281;28;20205;-77
2023/05/21 03:49:49;;;;;;;7.97;7.15;;;20.60;55.00;;;;;;4979633;28;20185;-76
2023/05/21 03:52:16;;;;;;;7.90;7.10;;;20.60;55.00;;;;;;4996517;28;20217;-77
2023/05/21 03:54:45;;;;;;;8.43;7.63;;;20.60;55.40;;;;;;4978073;28;20193;-77
2023/05/21 03:57:12;;;;;;;8.20;7.40;;;20.60;54.70;;;;;;4978822;28;20248;-77
2023/05/21 03:59:39;;;;;;;9.52;7.88;;;20.60;54.60;;;;;;4978748;28;20284;-77
2023/05/21 04:02:06;;;;;;;7.57;6.85;;;20.60;54.50;;;;;;4978621;28;20662;-77
2023/05/21 04:04:55;;;;;;;7.68;6.97;;;20.60;54.50;;;;;;4996707;28;20192;-77
2023/05/21 04:07:22;;;;;;;7.53;6.82;;;20.60;54.50;;;;;;4978465;28;20284;-76
2023/05/21 04:09:51;;;;;;;8.05;7.22;;;20.70;54.50;;;;;;4978804;28;20647;-76
2023/05/21 04:12:19;;;;;;;8.00;7.30;;;20.70;54.40;;;;;;4978815;28;20220;-77
2023/05/21 04:14:47;;;;;;;8.63;7.72;;;20.70;54.40;;;;;;4994876;28;20216;-76
2023/05/21 04:17:14;;;;;;;8.52;7.78;;;20.70;54.30;;;;;;4978510;28;20688;-76
2023/05/21 04:19:41;;;;;;;8.63;7.75;;;20.70;54.30;;;;;;4994856;28;20204;-77
2023/05/21 04:22:09;;;;;;;8.57;7.40;;;20.70;54.30;;;;;;4978884;28;20288;-77
2023/05/21 04:24:37;;;;;;;9.18;7.72;;;20.70;54.30;;;;;;4995955;28;20205;-76
2023/05/21 04:27:12;;;;;;;8.18;7.38;;;20.70;54.30;;;;;;4995176;28;20207;-76
2023/05/21 04:29:43;;;;;;;8.30;7.35;;;20.70;54.30;;;;;;4995023;28;20205;-76
2023/05/21 04:32:13;;;;;;;7.85;7.05;;;20.70;54.30;;;;;;4994891;28;20217;-76
2023/05/21 04:34:41;;;;;;;7.60;6.90;;;20.70;54.20;;;;;;4979949;28;20201;-77
2023/05/21 04:37:08;;;;;;;8.27;7.47;;;20.70;54.30;;;;;;4978634;28;20243;-77
2023/05/21 04:39:36;;;;;;;8.13;7.35;;;20.70;54.20;;;;;;4994455;28;20197;-77
2023/05/21 04:42:03;;;;;;;7.60;6.90;;;20.70;54.20;;;;;;4978287;28;20213;-76
2023/05/21 04:44:32;;;;;;;8.73;7.88;;;20.70;54.10;;;;;;4978061;28;20209;-77
2023/05/21 04:47:00;;;;;;;8.38;7.57;;;20.70;54.20;;;;;;5035599;22;20229;-76
2023/05/21 04:49:28;;;;;;;7.90;7.10;;;20.70;54.10;;;;;;4977293;28;20292;-75
2023/05/21 04:51:56;;;;;;;8.38;7.60;;;20.70;54.20;;;;;;4977347;28;20568;-75
2023/05/21 04:54:23;;;;;;;8.25;7.55;;;20.70;54.20;;;;;;4977262;28;20209;-75
2023/05/21 04:56:50;;;;;;;8.85;8.05;;;20.70;54.20;;;;;;4977256;28;20201;-75
2023/05/21 04:59:17;;;;;;;8.80;7.95;;;20.70;54.20;;;;;;4977235;28;20201;-77
2023/05/21 05:01:47;;;;;;;7.95;7.15;;;20.70;54.90;;;;;;4977268;28;20259;-77
2023/05/21 05:04:14;;;;;;;8.65;7.85;;;20.70;54.20;;;;;;4977711;28;20208;-78
2023/05/21 05:06:41;;;;;;;7.90;7.20;;;20.70;54.20;;;;;;4977362;28;20695;-77
2023/05/21 05:09:09;;;;;;;8.73;7.93;;;20.70;54.30;;;;;;4977491;28;20211;-76
2023/05/21 05:11:36;;;;;;;8.57;7.72;;;20.70;54.30;;;;;;4977468;28;20706;-77
2023/05/21 05:14:04;;;;;;;8.55;7.63;;;20.70;54.30;;;;;;4961539;28;20546;-77
2023/05/21 05:16:32;;;;;;;8.07;7.28;;;20.70;54.20;;;;;;4976908;28;20196;-77
2023/05/21 05:19:01;;;;;;;8.50;7.70;;;20.70;54.30;;;;;;4961783;28;20197;-77
2023/05/21 05:21:50;;;;;;;8.00;7.30;;;20.70;54.30;;;;;;4994993;28;20217;-77
2023/05/21 05:24:18;;;;;;;7.97;7.28;;;20.70;54.90;;;;;;4977516;28;20193;-77
2023/05/21 05:26:46;;;;;;;8.63;7.82;;;20.70;54.20;;;;;;4977701;28;20225;-77
2023/05/21 05:29:13;;;;;;;8.60;7.70;;;20.70;54.30;;;;;;4977681;28;20225;-78
2023/05/21 05:31:41;;;;;;;8.00;7.20;;;20.70;54.30;;;;;;4962133;28;20210;-78
2023/05/21 05:34:10;;;;;;;8.23;7.43;;;20.70;54.20;;;;;;4977760;28;20711;-77
2023/05/21 05:36:38;;;;;;;8.35;7.55;;;20.80;54.30;;;;;;4977520;28;20197;-77
2023/05/21 05:39:06;;;;;;;9.10;8.27;;;20.80;54.30;;;;;;4961742;28;20280;-77
2023/05/21 05:41:33;;;;;;;8.45;7.65;;;20.80;54.30;;;;;;4961687;28;20229;-78
2023/05/21 05:44:00;;;;;;;8.63;7.82;;;20.80;54.30;;;;;;4978067;28;20193;-77
2023/05/21 05:46:31;;;;;;;8.23;7.45;;;20.80;54.80;;;;;;4977754;28;20229;-77
2023/05/21 05:48:58;;;;;;;8.75;7.95;;;20.90;54.20;;;;;;4977100;28;20205;-77
2023/05/21 05:51:26;;;;;;;8.00;7.30;;;20.90;54.20;;;;;;4977146;28;20226;-77
2023/05/21 05:53:54;;;;;;;8.98;8.07;;;21.00;54.20;;;;;;4978009;28;20198;-77
2023/05/21 05:56:21;;;;;;;8.88;7.97;;;21.00;54.10;;;;;;4977616;28;20212;-77
2023/05/21 05:58:48;;;;;;;8.60;7.80;;;21.10;54.10;;;;;;4977130;28;20596;-77
2023/05/21 06:01:17;;;;;;;8.60;7.82;;;21.20;54.10;;;;;;4978298;28;20216;-77
2023/05/21 06:03:44;;;;;;;8.75;7.85;;;21.20;53.80;;;;;;4977750;28;20194;-77
2023/05/21 06:06:15;;;;;;;8.73;7.85;;;21.30;53.70;;;;;;4977372;28;20320;-77
2023/05/21 06:08:45;;;;;;;9.93;9.02;;;21.40;53.60;;;;;;4977477;28;20714;-77
2023/05/21 06:11:15;;;;;;;9.80;8.80;;;21.40;53.40;;;;;;4977803;28;20221;-75
2023/05/21 06:13:42;;;;;;;9.88;8.88;;;21.50;53.20;;;;;;4993869;28;20197;-74
2023/05/21 06:16:10;;;;;;;9.10;8.20;;;21.60;53.20;;;;;;5000885;28;20177;-74
2023/05/21 06:18:38;;;;;;;10.13;9.23;;;21.70;53.00;;;;;;5002616;28;20201;-75
2023/05/21 06:21:05;;;;;;;9.65;8.75;;;21.70;53.00;;;;;;5004475;28;20221;-75
2023/05/21 06:23:35;;;;;;;9.10;8.30;;;21.80;52.80;;;;;;5021225;28;20177;-75
2023/05/21 06:26:04;;;;;;;9.40;8.50;;;21.80;52.60;;;;;;5004451;28;20217;-75
2023/05/21 06:28:33;;;;;;;9.07;8.20;;;21.90;52.40;;;;;;5002811;28;20177;-75
2023/05/21 06:31:00;;;;;;;9.20;8.40;;;21.90;52.10;;;;;;4981743;28;20591;-75
2023/05/21 06:33:29;;;;;;;8.77;7.82;;;22.00;51.80;;;;;;4980877;28;20248;-76
2023/05/21 06:35:56;;;;;;;9.02;8.23;;;22.10;51.90;;;;;;4980802;28;20248;-77
2023/05/21 06:38:23;;;;;;;9.50;8.60;;;22.20;51.90;;;;;;4981179;28;20203;-76
2023/05/21 06:40:51;;;;;;;9.77;8.77;;;22.20;51.80;;;;;;4980805;28;20205;-75
2023/05/21 06:43:33;;;;;;;9.05;8.20;;;22.20;51.60;;;;;;4980911;28;20196;-75
2023/05/21 06:46:29;;;;;;;8.32;7.63;;;22.30;51.50;;;;;;4998041;28;20271;-75
2023/05/21 06:48:57;;;;;;;8.98;7.90;;;22.30;51.50;;;;;;4980933;28;20204;-75
2023/05/21 06:51:24;;;;;;;8.93;8.13;;;22.30;51.40;;;;;;4980372;28;20218;-75
2023/05/21 06:53:51;;;;;;;8.77;7.93;;;22.30;51.30;;;;;;4980264;28;20576;-75
2023/05/21 06:56:20;;;;;;;8.80;8.00;;;22.40;51.20;;;;;;4980205;28;20656;-76
2023/05/21 06:58:48;;;;;;;9.27;8.40;;;22.40;51.20;;;;;;4980010;28;20228;-76
2023/05/21 07:01:16;;;;;;;9.27;8.38;;;22.50;51.00;;;;;;4964311;28;20221;-76
2023/05/21 07:03:44;;;;;;;8.95;8.07;;;22.50;50.80;;;;;;4979895;28;20198;-75
2023/05/21 07:06:12;;;;;;;8.05;7.35;;;22.50;50.90;;;;;;4979535;28;20210;-75
2023/05/21 07:08:39;;;;;;;8.55;7.60;;;22.60;50.80;;;;;;4979846;28;20256;-75
2023/05/21 07:11:06;;;;;;;7.47;6.78;;;22.60;50.60;;;;;;4980438;28;20336;-75
2023/05/21 07:13:34;;;;;;;7.65;6.85;;;22.70;50.50;;;;;;4979536;28;20229;-75
2023/05/21 07:16:03;;;;;;;7.85;7.15;;;22.70;50.30;;;;;;4979514;28;20193;-75
2023/05/21 07:18:30;;;;;;;7.60;6.90;;;22.80;50.20;;;;;;4979678;28;20212;-76
2023/05/21 07:20:57;;;;;;;7.40;6.72;;;22.80;50.10;;;;;;4979801;28;20201;-75
2023/05/21 07:23:26;;;;;;;7.45;6.75;;;22.90;50.00;;;;;;4980633;28;20198;-75
2023/05/21 07:25:53;;;;;;;7.18;6.47;;;23.00;49.90;;;;;;4979073;28;20196;-75
2023/05/21 07:28:21;;;;;;;7.03;6.43;;;23.00;49.60;;;;;;4964206;28;20197;-76
2023/05/21 07:30:48;;;;;;;6.88;6.28;;;23.00;49.50;;;;;;4978660;28;20189;-76
2023/05/21 07:33:22;;;;;;;7.20;6.57;;;23.10;49.40;;;;;;4979399;28;20221;-76
2023/05/21 07:35:51;;;;;;;7.10;6.40;;;23.10;49.20;;;;;;4963910;28;20223;-76
2023/05/21 07:38:18;;;;;;;6.60;6.00;;;23.20;49.20;;;;;;4978824;28;20197;-76
2023/05/21 07:40:45;;;;;;;7.05;6.40;;;23.30;49.00;;;;;;4979038;28;20292;-76
2023/05/21 07:43:13;;;;;;;6.30;5.78;;;23.40;48.80;;;;;;4978892;28;20280;-75
2023/05/21 07:45:40;;;;;;;6.18;5.68;;;23.50;48.60;;;;;;4978541;28;20208;-75
2023/05/21 07:48:07;;;;;;;6.97;6.38;;;23.60;48.20;;;;;;4978741;28;20213;-76
2023/05/21 07:50:40;;;;;;;6.90;6.20;;;23.80;48.00;;;;;;4979069;28;20252;-76
2023/05/21 07:53:07;;;;;;;6.80;6.20;;;23.90;47.80;;;;;;4963418;28;20217;-77
2023/05/21 07:55:34;;;;;;;6.32;5.80;;;24.00;47.60;;;;;;4980159;28;20194;-76
2023/05/21 07:58:01;;;;;;;7.20;6.50;;;24.00;47.30;;;;;;4978873;28;20301;-76
2023/05/21 08:00:35;;;;;;;6.60;6.03;;;24.10;47.20;;;;;;4948678;28;20198;-76
2023/05/21 08:03:02;;;;;;;6.82;6.22;;;24.20;47.10;;;;;;4978397;28;20213;-76
2023/05/21 08:05:29;;;;;;;6.70;6.10;;;24.30;47.00;;;;;;4978925;28;20244;-76
2023/05/21 08:07:58;;;;;;;6.78;6.18;;;24.30;46.80;;;;;;4979153;28;20220;-76
2023/05/21 08:10:26;;;;;;;6.88;6.28;;;24.40;46.70;;;;;;4989053;28;20195;-75
2023/05/21 08:12:53;;;;;;;6.53;5.93;;;24.40;46.50;;;;;;5002105;28;20209;-75
2023/05/21 08:15:21;;;;;;;6.38;5.88;;;24.40;46.40;;;;;;5002201;28;20245;-75
2023/05/21 08:17:48;;;;;;;6.38;5.78;;;24.50;46.30;;;;;;5001969;28;20193;-75
2023/05/21 08:20:16;;;;;;;6.75;6.15;;;24.60;46.30;;;;;;5000956;28;20247;-75
2023/05/21 08:22:45;;;;;;;6.57;5.97;;;24.60;46.10;;;;;;4978548;28;20296;-75
2023/05/21 08:25:14;;;;;;;6.65;6.05;;;24.70;46.10;;;;;;4978212;28;20220;-75
2023/05/21 08:27:41;;;;;;;6.45;5.95;;;24.70;46.00;;;;;;4978499;28;20281;-75
2023/05/21 08:30:10;;;;;;;6.60;5.95;;;24.70;45.90;;;;;;4978785;28;20667;-75
2023/05/21 08:32:37;;;;;;;6.55;6.05;;;24.80;45.80;;;;;;4978769;28;20714;-76
2023/05/21 08:35:06;;;;;;;6.85;6.25;;;24.80;45.70;;;;;;4978089;28;20196;-76
2023/05/21 08:37:53;;;;;;;7.00;6.38;;;24.90;45.60;;;;;;4995785;28;20193;-77
2023/05/21 08:40:37;;;;;;;6.80;6.20;;;24.90;45.60;;;;;;4978430;28;20200;-77
2023/05/21 08:43:05;;;;;;;7.00;6.40;;;24.90;45.50;;;;;;4978063;28;20221;-76
2023/05/21 08:45:40;;;;;;;6.40;5.90;;;24.90;45.50;;;;;;4978115;28;20300;-76
2023/05/21 08:48:07;;;;;;;6.50;5.90;;;24.90;45.50;;;;;;4977427;28;20210;-77
2023/05/21 08:50:36;;;;;;;6.50;5.90;;;24.90;45.50;;;;;;4977680;28;20201;-77
2023/05/21 08:53:09;;;;;;;7.15;6.55;;;24.90;45.40;;;;;;4977619;28;20308;-77
2023/05/21 08:55:38;;;;;;;6.65;6.05;;;24.90;45.50;;;;;;4977468;28;20205;-77
2023/05/21 08:58:06;;;;;;;6.63;6.03;;;24.90;45.50;;;;;;4978589;28;20197;-76
2023/05/21 09:00:32;;;;;;;6.68;6.07;;;24.90;45.30;;;;;;4977358;28;20205;-76
2023/05/21 09:03:02;;;;;;;6.55;6.03;;;24.90;45.30;;;;;;4977620;28;20213;-76
2023/05/21 09:05:30;;;;;;;6.88;6.28;;;24.90;45.30;;;;;;4962558;28;20193;-76
2023/05/21 09:08:00;;;;;;;8.23;7.53;;;24.90;45.20;;;;;;4977300;28;20248;-76
2023/05/21 09:10:49;;;;;;;8.73;7.93;;;24.80;46.00;;;;;;4977493;28;20284;-76
2023/05/21 09:13:16;;;;;;;9.95;8.95;;;24.80;46.90;;;;;;4977919;28;20197;-76
2023/05/21 09:15:44;;;;;;;9.32;8.43;;;24.70;47.60;;;;;;4977315;28;20197;-76
2023/05/21 09:18:11;;;;;;;10.70;9.60;;;24.60;48.00;;;;;;4978613;28;20293;-77
2023/05/21 09:20:46;;;;;;;10.02;9.10;;;24.50;48.50;;;;;;4977883;28;20612;-77
2023/05/21 09:23:16;;;;;;;9.88;8.98;;;24.50;49.40;;;;;;4978566;28;20204;-78
2023/05/21 09:25:45;;;;;;;10.25;9.35;;;24.40;50.00;;;;;;4985370;28;20602;-77
2023/05/21 09:28:17;;;;;;;10.48;9.50;;;24.30;50.10;;;;;;4978181;28;20213;-77
2023/05/21 09:30:45;;;;;;;10.00;9.00;;;24.30;49.90;;;;;;4977232;28;20201;-77
2023/05/21 09:33:12;;;;;;;9.40;8.50;;;24.20;50.00;;;;;;4976881;28;20197;-77
2023/05/21 09:35:45;;;;;;;9.40;8.50;;;24.20;49.60;;;;;;4977774;28;20193;-76
2023/05/21 09:38:15;;;;;;;11.10;9.75;;;24.20;49.80;;;;;;4977321;28;20196;-77
2023/05/21 09:40:44;;;;;;;36.20;20.08;;;24.20;50.00;;;;;;4977022;28;20197;-77
2023/05/21 09:43:17;;;;;;;31.30;23.38;;;24.30;49.90;;;;;;4977612;28;20194;-76
2023/05/21 09:45:51;;;;;;;40.17;27.40;;;24.30;49.60;;;;;;4977511;28;20559;-76
2023/05/21 09:48:32;;;;;;;40.42;29.67;;;24.40;49.80;;;;;;4976529;28;20678;-76
2023/05/21 09:51:12;;;;;;;36.03;24.73;;;24.40;49.60;;;;;;4976731;28;20201;-76
2023/05/21 09:53:49;;;;;;;46.72;33.40;;;24.50;49.70;;;;;;4979010;28;20652;-76
2023/05/21 09:56:19;;;;;;;43.30;29.77;;;24.50;49.60;;;;;;4980634;28;20188;-76
2023/05/21 09:58:47;;;;;;;28.95;19.42;;;24.50;49.40;;;;;;4980609;28;20193;-76
2023/05/21 10:01:14;;;;;;;42.17;22.55;;;24.50;49.30;;;;;;4965064;28;20222;-76
2023/05/21 10:03:42;;;;;;;23.38;17.50;;;24.50;49.40;;;;;;4980572;28;20252;-75
2023/05/21 10:06:10;;;;;;;31.75;22.50;;;24.50;49.40;;;;;;4980525;28;20661;-76
2023/05/21 10:08:37;;;;;;;26.15;20.45;;;24.50;49.30;;;;;;4980280;28;20225;-76
2023/05/21 10:11:05;;;;;;;18.17;15.68;;;24.50;49.30;;;;;;4980510;28;20233;-76
2023/05/21 10:13:32;;;;;;;14.27;12.60;;;24.50;49.40;;;;;;4980340;28;20686;-76
2023/05/21 10:16:02;;;;;;;19.17;15.10;;;24.50;49.20;;;;;;4980722;28;20644;-76
2023/05/21 10:18:29;;;;;;;18.17;15.20;;;24.60;49.20;;;;;;4980841;28;20193;-76
2023/05/21 10:20:56;;;;;;;13.00;11.55;;;24.60;49.00;;;;;;4980150;28;20208;-76
2023/05/21 10:23:24;;;;;;;15.10;13.50;;;24.60;49.00;;;;;;4980065;28;20208;-76
2023/05/21 10:25:51;;;;;;;14.13;12.55;;;24.50;49.30;;;;;;4980220;28;20440;-76
2023/05/21 10:28:18;;;;;;;16.20;13.75;;;24.50;49.40;;;;;;4979292;28;20535;-76
2023/05/21 10:30:46;;;;;;;14.07;12.25;;;24.40;49.30;;;;;;4980255;28;20672;-76
2023/05/21 10:33:15;;;;;;;13.80;12.07;;;24.40;49.70;;;;;;4964024;28;20267;-77
2023/05/21 10:35:42;;;;;;;15.18;13.05;;;24.30;49.70;;;;;;4979592;28;20292;-77
2023/05/21 10:38:09;;;;;;;16.70;12.75;;;24.40;49.60;;;;;;4979670;28;20205;-77
2023/05/21 10:40:37;;;;;;;15.27;11.95;;;24.40;49.70;;;;;;4997078;28;20185;-77
2023/05/21 10:43:13;;;;;;;15.27;11.73;;;24.40;49.60;;;;;;4979540;28;20244;-77
2023/05/21 10:45:49;;;;;;;16.77;13.05;;;24.40;49.60;;;;;;4997211;22;20620;-81
2023/05/21 10:48:29;;;;;;;14.23;12.73;;;24.40;49.30;;;;;;4964811;28;20221;-80
2023/05/21 10:51:15;;;;;;;13.63;11.18;;;24.40;49.30;;;;;;4980448;28;20193;-78
2023/05/21 10:53:57;;;;;;;13.45;11.55;;;24.40;49.30;;;;;;4980982;28;20189;-78
2023/05/21 10:56:25;;;;;;;14.23;12.30;;;24.40;49.30;;;;;;4980569;28;20197;-78
2023/05/21 10:59:01;;;;;;;13.93;11.57;;;24.40;49.30;;;;;;4965014;28;20208;-78
2023/05/21 11:01:28;;;;;;;13.13;11.38;;;24.40;49.40;;;;;;4980533;28;20259;-78
2023/05/21 11:03:57;;;;;;;13.02;11.73;;;24.40;49.40;;;;;;4980475;28;20227;-78
2023/05/21 11:06:25;;;;;;;12.35;11.02;;;24.50;49.40;;;;;;4980178;28;20337;-78
2023/05/21 11:08:54;;;;;;;15.90;10.90;;;24.40;49.30;;;;;;4980730;28;20213;-80
2023/05/21 11:11:41;;;;;;;12.50;10.68;;;24.40;49.30;;;;;;4964335;28;20221;-79
2023/05/21 11:14:34;;;;;;;11.07;9.77;;;24.40;49.30;;;;;;4980276;28;20201;-80
2023/05/21 11:17:01;;;;;;;12.32;10.85;;;24.40;49.40;;;;;;4964730;28;20660;-79
2023/05/21 11:19:37;;;;;;;11.43;9.77;;;24.40;49.30;;;;;;4980007;28;20198;-79
2023/05/21 11:22:08;;;;;;;11.05;9.60;;;24.40;49.60;;;;;;4980393;28;20232;-79
2023/05/21 11:24:37;;;;;;;11.10;9.70;;;24.30;49.20;;;;;;4980064;28;20236;-78
2023/05/21 11:27:05;;;;;;;10.93;9.60;;;24.30;49.50;;;;;;4980041;28;20205;-79
2023/05/21 11:29:39;;;;;;;10.55;9.48;;;24.30;49.80;;;;;;4980385;28;20201;-78
2023/05/21 11:32:07;;;;;;;10.45;9.23;;;24.30;49.90;;;;;;4997051;28;20264;-78
2023/05/21 11:34:39;;;;;;;11.18;9.73;;;24.30;50.00;;;;;;4979408;28;20213;-78
2023/05/21 11:37:32;;;;;;;10.75;9.48;;;24.20;50.00;;;;;;4979630;28;20216;-78
2023/05/21 11:40:27;;;;;;;10.52;8.73;;;24.20;50.10;;;;;;4966441;28;20205;-79
2023/05/21 11:42:54;;;;;;;11.18;9.18;;;24.20;50.20;;;;;;4980924;28;20225;-79
2023/05/21 11:45:22;;;;;;;10.30;9.30;;;24.20;50.30;;;;;;4997400;28;20201;-78
2023/05/21 11:47:49;;;;;;;10.82;9.75;;;24.20;50.30;;;;;;4980285;28;20308;-79
2023/05/21 11:50:17;;;;;;;9.82;8.82;;;24.20;50.20;;;;;;4980335;28;20225;-80
2023/05/21 11:52:44;;;;;;;10.00;9.00;;;24.20;50.20;;;;;;4979945;28;20221;-79
2023/05/21 11:55:14;;;;;;;9.50;8.55;;;24.30;50.30;;;;;;4982204;28;20205;-79
2023/05/21 11:57:41;;;;;;;9.82;8.93;;;24.30;49.90;;;;;;4979596;28;20193;-79
2023/05/21 12:00:13;;;;;;;9.20;8.30;;;24.30;49.90;;;;;;4979410;28;20240;-79
2023/05/21 12:02:44;;;;;;;9.63;8.68;;;24.30;50.00;;;;;;4996800;28;20225;-80
2023/05/21 12:05:11;;;;;;;9.45;8.55;;;24.20;49.80;;;;;;4978807;28;20284;-80
2023/05/21 12:07:39;;;;;;;9.95;8.30;;;24.20;50.00;;;;;;4978451;28;20679;-80
2023/05/21 12:10:08;;;;;;;9.18;8.23;;;24.20;50.30;;;;;;4978568;28;20247;-80
2023/05/21 12:12:35;;;;;;;9.50;8.38;;;24.30;49.70;;;;;;4978926;28;20217;-79
2023/05/21 12:15:03;;;;;;;9.45;8.38;;;24.20;49.90;;;;;;4978270;28;20567;-79
2023/05/21 12:17:30;;;;;;;11.18;8.52;;;24.20;49.80;;;;;;4978771;28;20206;-80
2023/05/21 12:19:57;;;;;;;8.88;8.07;;;24.30;49.70;;;;;;4978659;28;20207;-80
2023/05/21 12:22:26;;;;;;;9.38;8.50;;;24.20;50.00;;;;;;4978622;28;20315;-79
2023/05/21 12:24:57;;;;;;;9.02;8.13;;;24.20;50.20;;;;;;4979558;28;20280;-79
2023/05/21 12:27:23;;;;;;;8.68;7.78;;;24.20;50.30;;;;;;4979272;28;20268;-80
2023/05/21 12:29:51;;;;;;;9.35;8.38;;;24.20;50.20;;;;;;4978884;28;20201;-79
2023/05/21 12:32:19;;;;;;;9.32;8.50;;;24.20;50.20;;;;;;4979371;28;20223;-80
2023/05/21 12:34:47;;;;;;;9.32;7.60;;;24.10;50.30;;;;;;4980496;28;20208;-80
2023/05/21 12:37:17;;;;;;;9.10;8.13;;;24.10;50.20;;;;;;4979843;28;20205;-80
2023/05/21 12:39:44;;;;;;;9.02;8.23;;;24.10;50.30;;;;;;4979382;28;20239;-80
2023/05/21 12:42:14;;;;;;;8.90;8.00;;;24.10;50.30;;;;;;4996710;28;20213;-80
2023/05/21 12:44:44;;;;;;;8.70;7.93;;;24.10;50.30;;;;;;4980425;28;20236;-79
2023/05/21 12:47:11;;;;;;;9.20;8.30;;;24.10;50.30;;;;;;4978890;28;20209;-79
2023/05/21 12:49:39;;;;;;;8.07;7.38;;;24.10;50.40;;;;;;4978318;28;20696;-80
2023/05/21 12:52:09;;;;;;;8.65;7.75;;;24.10;50.40;;;;;;4978340;28;20268;-80
2023/05/21 12:54:36;;;;;;;8.43;7.72;;;24.10;50.50;;;;;;4978446;28;20201;-80